Time;durP1;ratioP1;P1;durP2;ratioP2;P2;SDS_P1;SDS_P2;PMS_P1;PMS_P2;Temp;Humidity;BMP_temperature;BMP_pressure;BME280_temperature;BME280_humidity;BME280_pressure;Samples;Min_cycle;Max_cycle;Signal;HPM_P1;HPM_P2
2023/05/30 00:02:22;;;;;;;4.28;1.50;;;;;;;16.53;23.64;102074.28;5037437;28;20477;-69
2023/05/30 00:04:51;;;;;;;4.40;1.63;;;;;;;16.51;23.99;102079.94;5037641;28;20045;-68
2023/05/30 00:07:19;;;;;;;3.55;1.40;;;;;;;16.50;23.67;102080.94;5033064;28;20057;-69
2023/05/30 00:09:47;;;;;;;3.90;1.60;;;;;;;16.49;23.86;102089.41;5032850;28;20045;-68
2023/05/30 00:12:17;;;;;;;4.93;1.60;;;;;;;16.48;23.83;102090.44;5039795;28;20551;-69
2023/05/30 00:14:47;;;;;;;4.57;1.60;;;;;;;16.44;23.92;102100.00;5032749;28;20049;-69
2023/05/30 00:17:17;;;;;;;5.50;1.70;;;;;;;16.40;24.03;102102.19;5034752;28;20058;-69
2023/05/30 00:19:46;;;;;;;7.80;1.80;;;;;;;16.38;23.86;102095.94;5035206;28;20037;-69
2023/05/30 00:22:14;;;;;;;6.10;1.77;;;;;;;16.36;24.42;102100.72;5032657;28;20474;-68
2023/05/30 00:24:42;;;;;;;4.90;1.90;;;;;;;16.34;24.14;102105.50;5036478;28;20123;-69
2023/05/30 00:27:10;;;;;;;5.32;1.60;;;;;;;16.31;24.47;102105.81;5034920;28;20057;-69
2023/05/30 00:29:40;;;;;;;4.55;1.60;;;;;;;16.29;24.18;102107.84;5037721;28;20116;-69
2023/05/30 00:32:08;;;;;;;4.32;1.70;;;;;;;16.25;23.99;102104.47;5036344;28;20566;-69
2023/05/30 00:34:38;;;;;;;4.55;1.58;;;;;;;16.22;24.56;102112.19;5035857;28;20041;-68
2023/05/30 00:37:08;;;;;;;4.88;1.45;;;;;;;16.19;24.06;102109.69;5038643;28;21200;-69
2023/05/30 00:39:36;;;;;;;4.78;1.80;;;;;;;16.14;24.39;102104.56;5034945;28;20475;-69
2023/05/30 00:42:05;;;;;;;4.15;1.70;;;;;;;16.11;24.64;102104.84;5044976;28;20515;-69
2023/05/30 00:44:33;;;;;;;5.22;1.75;;;;;;;16.07;24.81;102099.75;5030771;28;20060;-68
2023/05/30 00:47:02;;;;;;;4.90;1.90;;;;;;;16.04;24.81;102103.66;5038791;28;20080;-70
2023/05/30 00:49:30;;;;;;;5.45;1.58;;;;;;;16.00;24.54;102101.31;5038916;28;20137;-67
2023/05/30 00:51:58;;;;;;;5.28;1.80;;;;;;;15.97;24.40;102101.59;5033389;28;20072;-68
2023/05/30 00:54:26;;;;;;;3.95;1.67;;;;;;;15.93;24.85;102095.47;5041584;28;20059;-68
2023/05/30 00:56:56;;;;;;;4.72;1.65;;;;;;;15.91;25.19;102096.63;5036483;28;20118;-68
2023/05/30 00:59:24;;;;;;;4.63;1.80;;;;;;;15.89;24.64;102099.53;5036486;28;20056;-68
2023/05/30 01:01:52;;;;;;;4.07;1.48;;;;;;;15.87;24.72;102099.66;5036488;28;20036;-68
2023/05/30 01:04:24;;;;;;;5.07;1.50;;;;;;;15.86;25.35;102097.91;5035436;28;20135;-68
2023/05/30 01:06:52;;;;;;;4.13;1.30;;;;;;;15.84;24.72;102093.53;5034916;28;20049;-68
2023/05/30 01:09:21;;;;;;;3.72;1.38;;;;;;;15.83;25.39;102100.09;5036144;28;20113;-68
2023/05/30 01:11:57;;;;;;;4.70;1.58;;;;;;;15.84;25.41;102099.94;5057665;28;20045;-68
2023/05/30 01:14:32;;;;;;;5.45;1.60;;;;;;;15.82;24.88;102101.97;5038402;28;20049;-68
2023/05/30 01:17:05;;;;;;;4.63;1.40;;;;;;;15.83;25.06;102105.63;5034471;28;20046;-68
2023/05/30 01:19:46;;;;;;;;;;;;;;;15.51;25.44;102100.19;5034773;28;20440;-68
2023/05/30 01:22:30;;;;;;;5.38;1.75;;;;;;;15.76;25.31;102101.63;5032261;28;20195;-68
2023/05/30 01:25:04;;;;;;;;;;;;;;;15.45;25.60;102101.63;5033179;28;20057;-68
2023/05/30 01:27:41;;;;;;;3.70;1.35;;;;;;;15.71;25.51;102106.72;5035069;28;20157;-68
2023/05/30 01:30:12;;;;;;;5.25;1.63;;;;;;;15.72;25.79;102095.53;5053719;28;20562;-68
2023/05/30 01:32:40;;;;;;;4.05;1.45;;;;;;;15.68;25.26;102096.81;5053305;28;20128;-67
2023/05/30 01:35:21;;;;;;;5.30;1.65;;;;;;;15.68;26.12;102096.81;5034999;28;20786;-68
2023/05/30 01:37:51;;;;;;;4.65;1.40;;;;;;;15.61;25.70;102106.66;5038610;28;20107;-68
2023/05/30 01:40:23;;;;;;;4.25;1.40;;;;;;;15.61;25.87;102103.88;5032509;28;20057;-68
2023/05/30 01:42:58;;;;;;;4.55;1.60;;;;;;;15.58;25.88;102095.91;5028645;28;20042;-68
2023/05/30 01:45:44;;;;;;;4.55;1.50;;;;;;;15.55;25.76;102100.81;5033955;28;20369;-68
2023/05/30 01:48:19;;;;;;;4.75;1.80;;;;;;;15.50;26.26;102092.97;5036697;28;20046;-68
2023/05/30 01:50:51;;;;;;;3.17;1.50;;;;;;;15.46;26.14;102086.81;5030704;28;20463;-68
2023/05/30 01:53:23;;;;;;;4.65;1.75;;;;;;;15.40;26.45;102087.38;5034789;28;20056;-68
2023/05/30 01:55:55;;;;;;;4.00;1.45;;;;;;;15.36;25.94;102090.53;5031922;28;20052;-67
2023/05/30 01:58:24;;;;;;;4.97;1.50;;;;;;;15.31;25.88;102092.78;5040737;28;20061;-68
2023/05/30 02:00:54;;;;;;;4.88;1.70;;;;;;;15.30;26.06;102091.91;5038206;28;20067;-67
2023/05/30 02:03:24;;;;;;;5.35;1.58;;;;;;;15.26;26.47;102097.84;5040483;28;20124;-68
2023/05/30 02:05:52;;;;;;;5.50;1.75;;;;;;;15.23;25.96;102100.88;5030614;28;20119;-69
2023/05/30 02:08:20;;;;;;;5.28;1.58;;;;;;;15.19;26.62;102104.88;5035890;28;20143;-69
2023/05/30 02:10:48;;;;;;;3.25;1.48;;;;;;;15.15;26.68;102101.56;5033251;28;20060;-68
2023/05/30 02:13:19;;;;;;;3.75;1.42;;;;;;;15.10;26.61;102110.22;5036270;28;20489;-69
2023/05/30 02:15:46;;;;;;;6.00;2.10;;;;;;;15.08;26.64;102111.38;5033134;28;20118;-68
2023/05/30 02:18:17;;;;;;;4.15;1.70;;;;;;;15.05;26.51;102120.78;5037497;28;20060;-69
2023/05/30 02:20:45;;;;;;;4.75;1.42;;;;;;;15.00;26.51;102111.16;5031915;28;20053;-68
2023/05/30 02:23:13;;;;;;;5.13;1.70;;;;;;;14.97;26.61;102114.16;5035224;28;20045;-68
2023/05/30 02:25:41;;;;;;;4.43;1.40;;;;;;;14.93;26.98;102115.47;5027466;28;20136;-68
2023/05/30 02:28:09;;;;;;;6.22;1.63;;;;;;;14.90;27.21;102121.22;5034749;28;20081;-69
2023/05/30 02:30:37;;;;;;;4.47;1.55;;;;;;;14.86;27.32;102122.47;5030176;28;20057;-69
2023/05/30 02:33:06;;;;;;;6.05;1.55;;;;;;;14.82;26.91;102121.88;5042940;28;20095;-68
2023/05/30 02:35:37;;;;;;;3.97;1.48;;;;;;;14.81;27.54;102122.00;5036147;28;20057;-68
2023/05/30 02:38:05;;;;;;;5.25;1.85;;;;;;;14.75;27.48;102123.44;5039737;28;20049;-69
2023/05/30 02:40:33;;;;;;;5.32;1.70;;;;;;;14.72;27.50;102123.66;5033068;28;20065;-68
2023/05/30 02:43:01;;;;;;;5.88;1.63;;;;;;;14.68;27.09;102125.81;5039145;28;20037;-69
2023/05/30 02:45:40;;;;;;;6.05;1.85;;;;;;;14.65;27.76;102126.09;5035891;28;20049;-68
2023/05/30 02:48:08;;;;;;;4.28;1.90;;;;;;;14.63;27.75;102124.44;5034901;28;20037;-68
2023/05/30 02:50:38;;;;;;;6.82;1.83;;;;;;;14.63;27.94;102124.44;5033330;28;20136;-68
2023/05/30 02:53:12;;;;;;;6.35;1.80;;;;;;;14.56;27.71;102129.63;5046553;28;20045;-68
2023/05/30 02:55:42;;;;;;;6.13;1.50;;;;;;;14.55;28.00;102135.25;5031570;28;20125;-68
2023/05/30 02:58:29;;;;;;;5.47;1.95;;;;;;;14.49;27.78;102135.78;5038441;28;20121;-68
2023/05/30 03:01:09;;;;;;;6.40;1.50;;;;;;;14.46;28.12;102133.22;5034729;28;20497;-69
2023/05/30 03:03:41;;;;;;;5.55;1.83;;;;;;;14.42;28.09;102126.25;5029833;28;20543;-68
2023/05/30 03:06:21;;;;;;;3.45;1.45;;;;;;;14.40;28.30;102126.38;5026573;28;20093;-69
2023/05/30 03:09:12;;;;;;;5.32;1.73;;;;;;;14.34;27.88;102133.28;5022811;28;20511;-68
2023/05/30 03:11:40;;;;;;;6.18;2.15;;;;;;;14.35;27.99;102137.75;5031047;28;20598;-69
2023/05/30 03:14:08;;;;;;;3.00;1.50;;;;;;;14.34;27.99;102135.16;5025171;28;20075;-68
2023/05/30 03:16:38;;;;;;;5.32;1.50;;;;;;;14.31;28.13;102129.88;5035106;28;20508;-67
2023/05/30 03:19:08;;;;;;;6.35;1.90;;;;;;;14.29;28.27;102131.88;5035099;28;20512;-67
2023/05/30 03:21:38;;;;;;;5.80;1.98;;;;;;;14.29;28.59;102134.63;5038551;28;20813;-68
2023/05/30 03:24:07;;;;;;;6.03;1.77;;;;;;;14.23;28.81;102127.78;5030483;28;20037;-68
2023/05/30 03:26:41;;;;;;;5.82;1.90;;;;;;;14.19;28.76;102123.50;5033357;28;20444;-68
2023/05/30 03:29:10;;;;;;;3.75;1.58;;;;;;;14.17;28.89;102128.28;5026728;28;20129;-68
2023/05/30 03:31:38;;;;;;;5.55;1.52;;;;;;;14.15;28.88;102124.78;5035254;28;20604;-67
2023/05/30 03:34:08;;;;;;;5.10;1.70;;;;;;;14.11;28.98;102125.16;5035304;28;20713;-68
2023/05/30 03:36:35;;;;;;;5.32;1.70;;;;;;;14.07;29.07;102116.28;5029556;28;20041;-68
2023/05/30 03:39:06;;;;;;;4.63;1.77;;;;;;;14.06;28.79;102120.03;5027793;28;20042;-68
2023/05/30 03:41:34;;;;;;;7.10;1.90;;;;;;;14.00;29.25;102120.56;5039118;28;20056;-68
2023/05/30 03:44:02;;;;;;;3.65;1.42;;;;;;;13.96;29.42;102125.41;5033060;28;20372;-67
2023/05/30 03:46:31;;;;;;;6.00;1.77;;;;;;;13.93;28.96;102124.81;5034857;28;20332;-68
2023/05/30 03:49:00;;;;;;;5.93;1.98;;;;;;;13.89;29.42;102123.28;5041550;28;20052;-70
2023/05/30 03:51:28;;;;;;;7.82;2.03;;;;;;;13.86;29.62;102129.91;5040553;28;20424;-68
2023/05/30 03:53:56;;;;;;;5.00;1.85;;;;;;;13.82;29.31;102124.81;5031198;28;20363;-69
2023/05/30 03:56:26;;;;;;;6.68;2.20;;;;;;;13.80;29.97;102129.53;5036090;28;20108;-68
2023/05/30 03:58:54;;;;;;;6.38;1.90;;;;;;;13.77;29.97;102121.56;5034565;28;20162;-68
2023/05/30 04:01:23;;;;;;;5.78;2.00;;;;;;;13.74;29.61;102136.44;5039497;28;20447;-68
2023/05/30 04:03:51;;;;;;;7.10;2.22;;;;;;;13.70;30.26;102140.41;5038335;28;20573;-69
2023/05/30 04:06:20;;;;;;;7.10;2.15;;;;;;;13.68;30.14;102136.94;5035720;28;20076;-69
2023/05/30 04:08:48;;;;;;;6.18;1.85;;;;;;;13.66;29.88;102138.03;5052513;28;20068;-69
2023/05/30 04:11:16;;;;;;;4.70;1.70;;;;;;;13.63;30.22;102140.03;5041780;28;20100;-69
2023/05/30 04:13:45;;;;;;;6.78;2.13;;;;;;;13.63;29.95;102141.91;5040719;28;20124;-69
2023/05/30 04:16:14;;;;;;;5.35;1.70;;;;;;;13.58;30.37;102142.28;5041541;28;20107;-69
2023/05/30 04:18:43;;;;;;;5.72;1.98;;;;;;;13.58;30.72;102145.03;5038761;28;20513;-69
2023/05/30 04:21:13;;;;;;;7.43;2.10;;;;;;;13.56;30.47;102149.78;5034003;28;20053;-69
2023/05/30 04:23:42;;;;;;;5.80;2.08;;;;;;;13.54;30.51;102143.50;5040047;28;20052;-69
2023/05/30 04:26:11;;;;;;;6.15;2.38;;;;;;;13.54;30.56;102150.88;5030985;28;20179;-69
2023/05/30 04:28:39;;;;;;;6.00;2.20;;;;;;;13.53;30.96;102160.16;5036531;28;20056;-69
2023/05/30 04:31:10;;;;;;;6.75;2.15;;;;;;;13.52;30.87;102158.38;5033327;28;20390;-69
2023/05/30 04:33:50;;;;;;;4.75;2.22;;;;;;;13.45;30.54;102155.22;5042917;28;20033;-68
2023/05/30 04:36:19;;;;;;;5.60;2.40;;;;;;;13.45;31.12;102151.59;5039072;28;20053;-69
2023/05/30 04:38:52;;;;;;;8.38;3.30;;;;;;;13.43;31.16;102160.00;5036659;28;20523;-70
2023/05/30 04:41:24;;;;;;;5.47;2.72;;;;;;;13.42;31.21;102152.72;5033672;28;20096;-69
2023/05/30 04:43:54;;;;;;;5.95;2.85;;;;;;;13.39;30.83;102157.59;5049041;28;20045;-69
2023/05/30 04:46:27;;;;;;;5.50;2.85;;;;;;;13.39;31.74;102165.84;5035727;28;20472;-69
2023/05/30 04:49:00;;;;;;;5.32;2.85;;;;;;;13.35;31.54;102167.97;5033629;28;20442;-70
2023/05/30 04:51:32;;;;;;;8.38;3.30;;;;;;;13.34;31.41;102162.59;5031811;28;20060;-70
2023/05/30 04:54:01;;;;;;;7.38;3.22;;;;;;;13.34;31.18;102171.72;5039668;28;20091;-72
2023/05/30 04:56:29;;;;;;;8.35;3.97;;;;;;;13.33;31.77;102161.72;5038196;28;20104;-73
2023/05/30 04:58:57;;;;;;;7.07;3.67;;;;;;;13.33;31.93;102163.56;5039494;28;20612;-72
2023/05/30 05:01:26;;;;;;;10.73;4.53;;;;;;;13.33;31.96;102167.22;5037095;28;20500;-72
2023/05/30 05:03:54;;;;;;;9.18;4.03;;;;;;;13.31;31.69;102160.06;5036802;28;20048;-72
2023/05/30 05:06:22;;;;;;;6.85;4.05;;;;;;;13.32;31.68;102167.31;5034439;28;20052;-73
2023/05/30 05:08:50;;;;;;;8.63;4.32;;;;;;;13.35;32.21;102169.84;5026465;28;20607;-76
2023/05/30 05:11:18;;;;;;;9.55;4.30;;;;;;;13.37;31.81;102162.31;5033634;28;20138;-70
2023/05/30 05:13:46;;;;;;;9.75;5.05;;;;;;;13.40;32.22;102156.59;5040799;28;20068;-69
2023/05/30 05:16:15;;;;;;;9.27;4.63;;;;;;;13.44;32.20;102156.25;5040360;28;20047;-68
2023/05/30 05:18:44;;;;;;;7.75;4.43;;;;;;;13.52;32.56;102158.38;5036075;28;20045;-68
2023/05/30 05:21:12;;;;;;;7.57;4.30;;;;;;;13.57;31.99;102162.53;5039275;28;20128;-68
2023/05/30 05:23:40;;;;;;;7.68;4.50;;;;;;;13.65;32.00;102167.44;5040084;28;20037;-68
2023/05/30 05:26:08;;;;;;;8.75;4.45;;;;;;;13.73;32.39;102162.19;5032320;28;20041;-70
2023/05/30 05:28:36;;;;;;;7.63;4.80;;;;;;;13.82;32.21;102164.19;5033852;28;20147;-71
2023/05/30 05:31:04;;;;;;;6.70;4.50;;;;;;;13.90;32.08;102152.56;5035304;28;20045;-71
2023/05/30 05:33:32;;;;;;;9.40;4.88;;;;;;;13.98;31.48;102161.97;5035147;28;20036;-70
2023/05/30 05:36:02;;;;;;;8.88;4.20;;;;;;;14.06;31.99;102166.84;5037680;28;20308;-71
2023/05/30 05:38:30;;;;;;;10.45;4.75;;;;;;;14.09;31.45;102171.22;5034478;28;20374;-71
2023/05/30 05:40:57;;;;;;;7.60;4.40;;;;;;;14.13;31.28;102170.84;5041123;28;20055;-71
2023/05/30 05:43:26;;;;;;;6.45;4.22;;;;;;;14.19;31.79;102167.56;5030225;28;20048;-70
2023/05/30 05:45:55;;;;;;;9.63;4.68;;;;;;;14.21;31.53;102168.31;5037149;28;20136;-71
2023/05/30 05:48:23;;;;;;;9.65;4.22;;;;;;;14.27;31.80;102166.97;5039916;28;20048;-71
2023/05/30 05:50:51;;;;;;;7.57;4.25;;;;;;;14.31;31.17;102172.06;5044681;28;20057;-70
2023/05/30 05:53:20;;;;;;;6.82;4.50;;;;;;;14.37;31.49;102177.06;5040266;28;20504;-71
2023/05/30 05:55:48;;;;;;;9.48;4.40;;;;;;;14.41;31.33;102176.81;5034968;28;20045;-72
2023/05/30 05:58:16;;;;;;;7.20;4.43;;;;;;;14.45;31.24;102175.53;5031048;28;20053;-69
2023/05/30 06:00:44;;;;;;;8.95;4.65;;;;;;;14.49;31.22;102179.84;5026597;28;20092;-72
2023/05/30 06:03:12;;;;;;;9.60;4.90;;;;;;;14.53;31.51;102179.44;5036828;28;20515;-71
2023/05/30 06:05:40;;;;;;;8.85;5.13;;;;;;;14.56;31.09;102186.59;5031686;28;20045;-71
2023/05/30 06:08:08;;;;;;;8.90;5.60;;;;;;;14.58;31.51;102181.84;5032382;28;20037;-71
2023/05/30 06:10:37;;;;;;;7.30;5.13;;;;;;;14.64;31.32;102190.47;5035484;28;20048;-71
2023/05/30 06:13:05;;;;;;;8.45;5.05;;;;;;;14.65;30.85;102185.81;5042515;28;20056;-72
2023/05/30 06:15:33;;;;;;;9.38;5.80;;;;;;;14.69;31.39;102190.06;5039702;28;20116;-71
2023/05/30 06:18:01;;;;;;;10.90;5.53;;;;;;;14.74;31.50;102196.06;5035640;28;20049;-72
2023/05/30 06:20:29;;;;;;;10.07;5.97;;;;;;;14.77;31.35;102199.44;5034822;28;20160;-72
2023/05/30 06:22:57;;;;;;;8.40;5.65;;;;;;;14.83;31.32;102191.66;5042181;28;20127;-71
2023/05/30 06:25:26;;;;;;;10.38;5.72;;;;;;;14.86;31.38;102200.53;5034164;28;20520;-72
2023/05/30 06:27:55;;;;;;;9.27;6.05;;;;;;;14.92;31.35;102201.91;5037291;28;20149;-71
2023/05/30 06:30:24;;;;;;;7.82;5.18;;;;;;;14.97;30.81;102203.25;5030194;28;20059;-72
2023/05/30 06:32:52;;;;;;;9.93;4.97;;;;;;;14.99;31.20;102195.75;5041314;28;20589;-72
2023/05/30 06:35:20;;;;;;;8.40;5.43;;;;;;;15.03;31.27;102204.63;5032793;28;20079;-72
2023/05/30 06:37:48;;;;;;;10.75;5.40;;;;;;;15.07;31.13;102184.06;5031947;28;20057;-72
2023/05/30 06:40:16;;;;;;;7.05;5.30;;;;;;;15.12;30.73;102190.91;5032422;28;20528;-71
2023/05/30 06:42:44;;;;;;;9.57;5.50;;;;;;;15.19;30.53;102198.66;5040094;28;20063;-71
2023/05/30 06:45:13;;;;;;;9.27;5.55;;;;;;;15.23;30.64;102197.41;5032546;28;20161;-72
2023/05/30 06:47:41;;;;;;;8.80;5.22;;;;;;;15.26;30.80;102186.13;5039919;28;20428;-72
2023/05/30 06:50:10;;;;;;;7.65;4.72;;;;;;;15.31;30.71;102183.81;5037704;28;20579;-72
2023/05/30 06:52:38;;;;;;;6.75;4.82;;;;;;;15.35;30.33;102196.34;5039416;28;20056;-72
2023/05/30 06:55:07;;;;;;;7.32;4.72;;;;;;;15.40;30.37;102191.34;5030632;28;20141;-71
2023/05/30 06:57:36;;;;;;;7.15;4.70;;;;;;;15.41;30.25;102193.97;5038769;28;20516;-71
2023/05/30 07:00:05;;;;;;;7.72;4.95;;;;;;;15.46;30.84;102202.69;5037011;28;20075;-71
2023/05/30 07:02:35;;;;;;;7.53;4.43;;;;;;;15.52;30.73;102198.53;5031348;28;20050;-71
2023/05/30 07:05:03;;;;;;;7.07;4.93;;;;;;;15.52;30.70;102199.41;5029716;28;20405;-71
2023/05/30 07:07:31;;;;;;;7.47;4.78;;;;;;;15.55;30.66;102205.66;5040233;28;20412;-70
2023/05/30 07:09:59;;;;;;;7.10;4.50;;;;;;;15.60;30.08;102203.38;5038382;28;20037;-71
2023/05/30 07:12:27;;;;;;;9.52;4.47;;;;;;;15.63;30.60;102206.75;5034214;28;20063;-71
2023/05/30 07:14:54;;;;;;;9.82;4.68;;;;;;;15.67;30.28;102199.09;5038368;28;20145;-70
2023/05/30 07:17:22;;;;;;;7.55;4.40;;;;;;;15.72;30.63;102200.41;5035331;28;20172;-71
2023/05/30 07:19:52;;;;;;;6.38;3.72;;;;;;;15.81;30.44;102207.00;5035102;28;20289;-69
2023/05/30 07:22:19;;;;;;;7.00;3.95;;;;;;;15.86;30.46;102199.19;5033567;28;20046;-69
2023/05/30 07:24:47;;;;;;;7.47;4.10;;;;;;;15.94;30.91;102209.53;5035663;28;20045;-70
2023/05/30 07:27:15;;;;;;;9.38;4.15;;;;;;;16.00;30.23;102209.00;5037495;28;20049;-69
2023/05/30 07:29:43;;;;;;;8.52;4.20;;;;;;;16.08;30.24;102200.91;5039909;28;20403;-69
2023/05/30 07:32:12;;;;;;;6.30;3.65;;;;;;;16.15;30.72;102205.75;5039023;28;20073;-70
2023/05/30 07:34:41;;;;;;;7.93;4.25;;;;;;;16.22;30.11;102218.03;5033264;28;20289;-68
2023/05/30 07:37:11;;;;;;;8.73;4.13;;;;;;;16.33;30.19;102213.41;5038998;28;20559;-69
2023/05/30 07:39:38;;;;;;;7.38;3.58;;;;;;;16.38;30.40;102211.09;5034684;28;20039;-69
2023/05/30 07:42:07;;;;;;;9.02;4.18;;;;;;;16.41;29.72;102216.34;5038155;28;20555;-68
2023/05/30 07:44:36;;;;;;;6.70;4.25;;;;;;;16.48;29.45;102212.91;5033831;28;20517;-69
2023/05/30 07:47:04;;;;;;;8.07;3.75;;;;;;;16.54;29.98;102209.56;5032474;28;20064;-68
2023/05/30 07:49:32;;;;;;;6.75;3.90;;;;;;;16.61;29.92;102215.38;5038149;28;20041;-72
2023/05/30 07:52:00;;;;;;;7.43;4.43;;;;;;;16.66;29.81;102220.50;5032578;28;20112;-70
2023/05/30 07:54:30;;;;;;;7.57;4.28;;;;;;;16.72;29.56;102220.81;5056187;28;20068;-71
2023/05/30 07:56:58;;;;;;;7.72;4.15;;;;;;;16.75;29.23;102226.03;5036521;28;20056;-70
2023/05/30 07:59:26;;;;;;;6.10;3.85;;;;;;;16.79;29.35;102219.22;5044429;28;20056;-70
2023/05/30 08:01:54;;;;;;;8.90;3.97;;;;;;;16.83;29.55;102215.16;5043638;28;20115;-71
2023/05/30 08:04:22;;;;;;;6.38;4.10;;;;;;;16.88;29.03;102214.72;5049117;28;20262;-71
2023/05/30 08:06:50;;;;;;;7.38;3.97;;;;;;;16.91;29.10;102208.91;5041954;28;20041;-69
2023/05/30 08:09:18;;;;;;;6.25;3.95;;;;;;;16.95;29.40;102204.84;5041129;28;20504;-68
2023/05/30 08:11:47;;;;;;;5.78;3.65;;;;;;;17.02;29.42;102209.69;5040501;28;20056;-71
2023/05/30 08:14:15;;;;;;;8.23;4.18;;;;;;;17.07;28.92;102212.03;5036804;28;20072;-71
2023/05/30 08:16:43;;;;;;;8.43;4.25;;;;;;;17.13;29.63;102200.38;5033983;28;20108;-71
2023/05/30 08:19:11;;;;;;;9.23;4.75;;;;;;;17.19;29.17;102204.44;5045728;28;20451;-71
2023/05/30 08:21:39;;;;;;;7.28;4.53;;;;;;;17.23;28.67;102203.16;5039981;28;20057;-72
2023/05/30 08:24:08;;;;;;;6.22;4.18;;;;;;;17.28;28.99;102207.22;5030419;28;20111;-72
2023/05/30 08:26:36;;;;;;;6.57;4.25;;;;;;;17.30;28.75;102196.91;5036742;28;20140;-72
2023/05/30 08:29:05;;;;;;;8.48;4.57;;;;;;;17.39;28.42;102198.78;5031562;28;20476;-72
2023/05/30 08:31:33;;;;;;;8.40;4.63;;;;;;;17.43;28.92;102190.16;5040779;28;20065;-72
2023/05/30 08:34:02;;;;;;;8.65;5.50;;;;;;;17.47;28.82;102188.88;5032395;28;20040;-72
2023/05/30 08:36:31;;;;;;;8.52;5.03;;;;;;;17.52;28.49;102190.16;5044382;28;20408;-72
2023/05/30 08:39:01;;;;;;;8.95;4.40;;;;;;;17.59;28.55;102193.22;5036016;28;20175;-72
2023/05/30 08:41:42;;;;;;;7.88;4.32;;;;;;;17.67;29.13;102182.25;5046019;28;20057;-72
2023/05/30 08:44:11;;;;;;;7.70;4.25;;;;;;;17.79;29.14;102196.88;5035563;28;20107;-72
2023/05/30 08:46:42;;;;;;;6.50;4.75;;;;;;;17.86;28.69;102198.00;5030650;28;20061;-72
2023/05/30 08:49:13;;;;;;;7.35;4.63;;;;;;;17.96;27.85;102198.84;5035327;28;20038;-72
2023/05/30 08:51:43;;;;;;;7.05;4.63;;;;;;;18.02;28.01;102199.13;5037123;28;20046;-72
2023/05/30 08:54:17;;;;;;;8.38;5.22;;;;;;;18.09;28.08;102196.63;5036039;28;20785;-72
2023/05/30 08:56:48;;;;;;;8.25;4.50;;;;;;;18.15;27.97;102196.00;5041691;28;20453;-72
2023/05/30 08:59:19;;;;;;;5.85;4.05;;;;;;;18.23;27.66;102187.78;5035305;28;20057;-72
2023/05/30 09:01:50;;;;;;;6.55;4.78;;;;;;;18.27;27.41;102203.09;5039586;28;20184;-72
2023/05/30 09:04:23;;;;;;;5.85;3.78;;;;;;;18.33;27.51;102196.06;5032741;28;20045;-72
2023/05/30 09:06:52;;;;;;;6.40;4.13;;;;;;;18.39;28.03;102189.94;5039180;28;20131;-72
2023/05/30 09:09:22;;;;;;;7.70;4.15;;;;;;;18.47;27.73;102187.28;5039564;28;20041;-72
2023/05/30 09:11:52;;;;;;;7.00;4.18;;;;;;;18.53;27.45;102189.44;5040516;28;20053;-72
2023/05/30 09:14:21;;;;;;;8.52;4.45;;;;;;;18.58;27.46;102192.63;5039474;28;20045;-72
2023/05/30 09:16:50;;;;;;;9.57;4.53;;;;;;;18.64;27.20;102180.03;5040291;28;20053;-72
2023/05/30 09:19:18;;;;;;;9.15;4.88;;;;;;;18.67;26.85;102182.50;5030476;28;20050;-72
2023/05/30 09:21:46;;;;;;;7.53;4.22;;;;;;;18.70;26.59;102179.44;5033078;28;20061;-72
2023/05/30 09:24:14;;;;;;;8.00;4.10;;;;;;;18.74;26.22;102178.94;5039002;28;20135;-72
2023/05/30 09:26:56;;;;;;;6.10;3.72;;;;;;;18.77;25.75;102175.88;5034550;28;20131;-72
2023/05/30 09:29:26;;;;;;;6.13;3.80;;;;;;;18.76;26.41;102178.78;5036546;28;20463;-72
2023/05/30 09:31:54;;;;;;;5.93;3.30;;;;;;;18.78;26.77;102172.06;5033095;28;20048;-72
2023/05/30 09:34:22;;;;;;;5.72;3.60;;;;;;;18.83;26.79;102179.91;5042251;28;20053;-72
2023/05/30 09:36:54;;;;;;;7.05;3.72;;;;;;;18.89;26.85;102185.69;5039010;28;20549;-72
2023/05/30 09:39:25;;;;;;;6.85;3.33;;;;;;;18.93;27.14;102174.28;5031025;28;20053;-72
2023/05/30 09:41:56;;;;;;;7.72;3.95;;;;;;;19.01;27.06;102172.47;5028606;28;20471;-72
2023/05/30 09:44:26;;;;;;;6.43;4.05;;;;;;;19.09;26.74;102174.47;5035132;28;20049;-72
2023/05/30 09:46:57;;;;;;;7.53;4.40;;;;;;;19.18;26.27;102167.97;5033630;28;20096;-72
2023/05/30 09:49:28;;;;;;;5.88;4.03;;;;;;;19.22;26.38;102172.19;5035474;28;20523;-72
2023/05/30 09:51:56;;;;;;;7.43;4.57;;;;;;;19.31;26.38;102184.22;5040891;28;20423;-72
2023/05/30 09:54:24;;;;;;;7.13;4.10;;;;;;;19.38;26.48;102172.31;5033304;28;20056;-72
2023/05/30 09:56:53;;;;;;;6.28;3.75;;;;;;;19.47;26.24;102173.25;5037628;28;20065;-72
2023/05/30 09:59:26;;;;;;;6.68;4.60;;;;;;;19.53;25.52;102165.19;5038242;28;20497;-72
2023/05/30 10:01:54;;;;;;;7.55;3.97;;;;;;;19.56;25.84;102159.28;5032617;28;20067;-72
2023/05/30 10:04:23;;;;;;;6.43;3.30;;;;;;;19.61;25.70;102156.91;5032158;28;20048;-72
2023/05/30 10:10:37;;;;;;;5.45;3.80;;;;;;;19.64;25.63;102162.13;5020090;28;20440;-84
2023/05/30 10:13:06;;;;;;;6.22;3.45;;;;;;;19.69;25.15;102156.09;5031839;28;20047;-83
2023/05/30 10:15:36;;;;;;;6.13;3.38;;;;;;;19.75;25.01;102155.44;5026454;28;20080;-84
2023/05/30 10:18:07;;;;;;;6.35;2.97;;;;;;;19.78;25.31;102157.91;5022447;28;20486;-83
2023/05/30 10:20:38;;;;;;;5.35;3.13;;;;;;;19.83;25.18;102165.72;5024693;28;20167;-83
2023/05/30 10:23:07;;;;;;;5.97;3.38;;;;;;;19.86;25.33;102162.63;5017144;28;20045;-83
2023/05/30 10:25:37;;;;;;;5.03;2.83;;;;;;;19.91;25.35;102155.56;5034899;28;20044;-83
2023/05/30 10:28:08;;;;;;;7.80;3.67;;;;;;;19.93;25.04;102156.28;5029836;28;20631;-83
2023/05/30 10:30:38;;;;;;;6.15;3.78;;;;;;;20.00;25.12;102160.16;5020869;28;20057;-82
2023/05/30 10:33:10;;;;;;;5.75;3.42;;;;;;;20.06;24.83;102158.59;5026372;28;20045;-83
2023/05/30 10:35:38;;;;;;;6.90;3.22;;;;;;;20.03;25.13;102147.84;5032787;28;20068;-83
2023/05/30 10:38:11;;;;;;;5.28;2.95;;;;;;;20.10;24.65;102140.56;5038010;28;20056;-83
2023/05/30 10:40:47;;;;;;;8.38;3.50;;;;;;;20.13;24.39;102148.56;5018903;28;20053;-83
2023/05/30 10:43:26;;;;;;;6.43;3.55;;;;;;;20.18;24.34;102140.63;5023337;28;20050;-83
2023/05/30 10:46:09;;;;;;;6.18;3.50;;;;;;;20.21;23.95;102151.38;5032362;28;20062;-84
2023/05/30 10:48:44;;;;;;;;;;;;;;;19.91;24.73;102143.59;5024762;28;20048;-83
2023/05/30 10:51:13;;;;;;;5.10;2.90;;;;;;;20.20;24.69;102141.28;5044009;28;19921;-83
2023/05/30 10:53:43;;;;;;;8.07;3.50;;;;;;;20.27;24.40;102144.31;5031240;28;20060;-83
2023/05/30 10:56:52;;;;;;;7.13;3.22;;;;;;;20.30;23.63;102138.38;5034746;28;20403;-84
2023/05/30 10:59:21;;;;;;;6.15;3.03;;;;;;;20.33;23.87;102147.28;5012571;28;20049;-84
2023/05/30 11:02:01;;;;;;;5.05;3.25;;;;;;;20.41;23.57;102140.88;5009835;28;20046;-83
2023/05/30 11:04:32;;;;;;;6.70;3.10;;;;;;;20.43;23.98;102140.72;5046607;28;20049;-83
2023/05/30 11:07:06;;;;;;;6.50;3.55;;;;;;;20.48;23.97;102133.59;5033950;28;20049;-84
2023/05/30 11:09:40;;;;;;;4.90;3.25;;;;;;;20.55;23.65;102129.09;5035839;28;20041;-83
2023/05/30 11:12:14;;;;;;;6.85;3.10;;;;;;;20.57;24.01;102118.69;5031967;28;20120;-82
2023/05/30 11:14:42;;;;;;;6.28;3.60;;;;;;;20.62;23.76;102126.53;5061742;28;20041;-83
2023/05/30 11:17:12;;;;;;;5.68;3.25;;;;;;;20.69;23.61;102119.28;5044232;28;20248;-82
2023/05/30 11:19:42;;;;;;;5.75;3.20;;;;;;;20.72;23.66;102113.34;5046509;28;20100;-82
2023/05/30 11:22:11;;;;;;;6.40;3.08;;;;;;;20.76;23.71;102111.97;5028381;28;20056;-83
2023/05/30 11:24:41;;;;;;;4.90;2.90;;;;;;;20.82;23.93;102110.41;5030517;28;20420;-84
2023/05/30 11:27:10;;;;;;;5.90;2.70;;;;;;;20.86;23.73;102112.66;5035555;28;20064;-83
2023/05/30 11:29:47;;;;;;;6.05;3.00;;;;;;;20.95;23.81;102107.97;5029030;28;20339;-84
2023/05/30 11:32:20;;;;;;;5.30;3.00;;;;;;;21.00;23.60;102100.00;5041956;28;20049;-83
2023/05/30 11:34:57;;;;;;;;;;;;;;;20.72;23.85;102117.00;5039113;28;20419;-83
2023/05/30 11:37:32;;;;;;;5.50;3.00;;;;;;;21.03;23.91;102102.41;5037998;28;20008;-83
2023/05/30 11:40:03;;;;;;;6.15;3.00;;;;;;;21.11;23.66;102102.41;5037181;28;20512;-83
2023/05/30 11:42:32;;;;;;;7.97;3.63;;;;;;;21.18;23.36;102097.06;5049765;28;20037;-83
2023/05/30 11:45:00;;;;;;;6.45;3.08;;;;;;;21.21;23.08;102083.63;5053026;28;20049;-82